createdAt,value
2022-08-07T00:02:36.230Z,70.08
2022-08-07T00:05:01.068Z,70.24
2022-08-07T00:07:40.077Z,70.09
2022-08-07T00:10:30.574Z,70.45
2022-08-07T00:13:01.449Z,70.48
2022-08-07T00:15:38.188Z,70.78
2022-08-07T00:18:19.802Z,70.97
2022-08-07T00:20:52.960Z,71.20
2022-08-07T00:23:22.468Z,71.04
2022-08-07T00:25:59.017Z,71.26
2022-08-07T00:28:33.188Z,71.65
2022-08-07T00:31:05.745Z,71.70
2022-08-07T00:33:34.971Z,71.85
2022-08-07T00:36:03.717Z,71.76
2022-08-07T00:38:34.224Z,71.77
2022-08-07T00:41:02.465Z,72.16
2022-08-07T00:43:59.326Z,72.11
2022-08-07T00:46:19.094Z,72.17
2022-08-07T00:48:49.738Z,72.63
2022-08-07T00:51:18.313Z,73.01
2022-08-07T00:53:50.111Z,72.91
2022-08-07T00:56:19.311Z,73.18
2022-08-07T00:58:49.671Z,73.50
2022-08-07T01:01:20.374Z,73.42
2022-08-07T01:03:56.660Z,73.31
2022-08-07T01:06:29.651Z,73.81
2022-08-07T01:09:01.077Z,73.64
2022-08-07T01:12:23.797Z,74.08
2022-08-07T01:14:21.290Z,74.09
2022-08-07T01:16:58.210Z,74.22
2022-08-07T01:19:32.218Z,74.32
2022-08-07T01:22:03.162Z,74.15
2022-08-07T01:24:37.084Z,74.09
2022-08-07T01:27:06.521Z,74.48
2022-08-07T01:29:47.989Z,74.56
2022-08-07T01:32:19.196Z,74.73
2022-08-07T01:34:52.225Z,74.99
2022-08-07T01:37:22.261Z,75.12
2022-08-07T01:39:53.125Z,75.37
2022-08-07T01:42:38.143Z,75.11
2022-08-07T01:45:18.196Z,75.16
2022-08-07T01:48:17.577Z,75.07
2022-08-07T01:50:48.240Z,75.20
2022-08-07T01:54:09.339Z,75.22
2022-08-07T01:56:13.910Z,75.29
2022-08-07T01:58:49.671Z,75.34
2022-08-07T02:01:25.355Z,75.52
2022-08-07T02:04:17.428Z,75.53
2022-08-07T02:06:52.950Z,75.89
2022-08-07T02:09:51.646Z,76.00
2022-08-07T02:12:29.080Z,76.42
2022-08-07T02:15:01.622Z,76.73
2022-08-07T02:17:40.443Z,76.80
2022-08-07T02:20:17.446Z,76.42
2022-08-07T02:22:57.578Z,76.50
2022-08-07T02:26:10.225Z,76.70
2022-08-07T02:28:25.275Z,76.92
2022-08-07T02:30:56.908Z,76.98
2022-08-07T02:33:41.823Z,77.07
2022-08-07T02:36:28.645Z,77.14
2022-08-07T02:39:16.000Z,77.29
2022-08-07T02:41:54.433Z,77.51
2022-08-07T02:44:26.787Z,77.29
2022-08-07T02:46:57.342Z,77.84
2022-08-07T02:49:28.599Z,77.52
2022-08-07T02:52:21.492Z,77.94
2022-08-07T02:55:03.731Z,77.95
2022-08-07T02:57:37.586Z,78.09
2022-08-07T03:00:10.345Z,78.46
2022-08-07T03:02:55.072Z,78.32
2022-08-07T03:05:25.810Z,78.59
2022-08-07T03:08:09.499Z,78.29
2022-08-07T03:10:46.768Z,78.81
2022-08-07T03:13:20.251Z,78.65
2022-08-07T03:15:56.206Z,78.61
2022-08-07T03:18:34.257Z,78.48
2022-08-07T03:21:08.926Z,78.78
2022-08-07T03:24:21.191Z,78.84
2022-08-07T03:26:34.213Z,79.23
2022-08-07T03:29:10.554Z,78.84
2022-08-07T03:31:46.416Z,79.30
2022-08-07T03:34:22.281Z,79.44
2022-08-07T03:36:55.372Z,79.48
2022-08-07T03:39:46.585Z,80.01
2022-08-07T03:42:18.989Z,80.11
2022-08-07T03:44:53.545Z,79.73
2022-08-07T03:47:29.520Z,80.22
2022-08-07T03:50:13.627Z,80.01
2022-08-07T03:52:43.411Z,80.39
2022-08-07T03:55:12.833Z,80.34
2022-08-07T03:58:32.402Z,80.22
2022-08-07T04:00:46.319Z,79.24
2022-08-07T04:03:21.061Z,79.81
2022-08-07T04:05:51.931Z,80.02
2022-08-07T04:08:27.618Z,80.22
2022-08-07T04:12:24.847Z,80.26
2022-08-07T04:14:10.293Z,80.83
2022-08-07T04:16:38.007Z,80.63
2022-08-07T04:19:14.874Z,81.50
2022-08-07T04:21:58.916Z,81.63
2022-08-07T04:24:38.825Z,81.85
2022-08-07T04:27:15.110Z,81.88
2022-08-07T04:30:02.125Z,81.76
2022-08-07T04:32:47.864Z,81.83
2022-08-07T04:35:17.805Z,82.32
2022-08-07T04:38:02.795Z,82.04
2022-08-07T04:40:33.520Z,81.96
2022-08-07T04:43:03.488Z,81.61
2022-08-07T04:45:57.269Z,82.48
2022-08-07T04:48:38.369Z,82.55
2022-08-07T04:51:10.693Z,82.78
2022-08-07T04:54:01.428Z,83.20
2022-08-07T04:58:10.522Z,83.34
2022-08-07T05:00:12.834Z,83.20
2022-08-07T05:02:29.336Z,83.04
2022-08-07T05:05:51.560Z,83.29
2022-08-07T05:07:59.370Z,83.44
2022-08-07T05:10:35.146Z,83.68
2022-08-07T05:14:51.970Z,84.50
2022-08-07T05:16:04.641Z,85.04
2022-08-07T05:18:37.309Z,84.95
2022-08-07T05:21:14.612Z,85.04
2022-08-07T05:23:49.203Z,85.63
2022-08-07T05:26:24.473Z,86.00
2022-08-07T05:29:06.050Z,86.15
2022-08-07T05:31:39.548Z,86.58
2022-08-07T05:34:17.028Z,87.35
2022-08-07T05:36:52.960Z,87.31
2022-08-07T05:40:05.631Z,87.20
2022-08-07T05:42:34.729Z,87.20
2022-08-07T05:45:25.962Z,88.10
2022-08-07T05:48:03.211Z,88.24
2022-08-07T05:50:42.838Z,88.17
2022-08-07T05:54:12.977Z,88.26
2022-08-07T05:56:05.864Z,88.49
2022-08-07T05:58:39.740Z,88.54
2022-08-07T06:01:13.229Z,89.01
2022-08-07T06:03:56.814Z,88.87
2022-08-07T06:06:32.693Z,88.92
2022-08-07T06:09:05.874Z,88.91
2022-08-07T06:11:39.026Z,88.15
2022-08-07T06:14:12.467Z,87.42
2022-08-07T06:16:56.412Z,86.74
2022-08-07T06:19:52.353Z,85.42
2022-08-07T06:22:27.331Z,84.69
2022-08-07T06:25:36.119Z,83.88
2022-08-07T06:28:05.760Z,83.11
2022-08-07T06:30:35.742Z,82.11
2022-08-07T06:33:16.031Z,81.07
2022-08-07T06:36:06.292Z,79.75
2022-08-07T06:38:35.454Z,78.63
2022-08-07T06:41:13.065Z,78.03
2022-08-07T06:43:45.990Z,77.10
2022-08-07T06:46:31.136Z,76.75
2022-08-07T06:49:04.402Z,76.05
2022-08-07T06:51:49.469Z,75.28
2022-08-07T06:55:32.814Z,75.06
2022-08-07T06:57:13.600Z,74.29
2022-08-07T07:00:11.708Z,73.90
2022-08-07T07:02:53.821Z,73.05
2022-08-07T07:06:02.440Z,72.67
2022-08-07T07:08:18.806Z,71.41
2022-08-07T07:10:56.462Z,70.79
2022-08-07T07:13:55.911Z,70.78
2022-08-07T07:16:27.642Z,69.95
2022-08-07T07:19:04.135Z,69.14
2022-08-07T07:22:04.885Z,68.65
2022-08-07T07:24:42.948Z,68.06
2022-08-07T07:27:14.851Z,67.89
2022-08-07T07:29:56.699Z,67.52
2022-08-07T07:32:40.542Z,65.96
2022-08-07T07:35:13.074Z,63.65
2022-08-07T07:37:47.526Z,62.32
2022-08-07T07:40:26.064Z,61.64
2022-08-07T07:42:56.429Z,61.26
2022-08-07T07:46:53.262Z,60.96
2022-08-07T07:48:24.316Z,59.92
2022-08-07T07:51:08.077Z,57.92
2022-08-07T07:53:51.343Z,57.00
2022-08-07T07:56:30.219Z,56.20
2022-08-07T07:59:01.675Z,55.78
2022-08-07T08:02:02.576Z,55.13
2022-08-07T08:04:25.670Z,54.72
2022-08-07T08:06:55.268Z,53.80
2022-08-07T08:09:29.498Z,52.94
2022-08-07T08:12:02.767Z,52.86
2022-08-07T08:14:34.334Z,53.16
2022-08-07T08:17:55.655Z,52.40
2022-08-07T08:20:19.142Z,51.73
2022-08-07T08:23:08.453Z,51.52
2022-08-07T08:25:58.131Z,49.97
2022-08-07T08:28:38.160Z,49.75
2022-08-07T08:31:14.892Z,49.81
2022-08-07T08:33:49.545Z,49.04
2022-08-07T08:36:25.710Z,48.05
2022-08-07T08:39:02.025Z,47.22
2022-08-07T08:41:58.356Z,47.47
2022-08-07T08:44:38.317Z,47.63
2022-08-07T08:47:26.255Z,47.00
2022-08-07T08:50:05.664Z,46.35
2022-08-07T08:52:40.955Z,45.86
2022-08-07T08:55:55.536Z,46.07
2022-08-07T08:58:24.903Z,43.32
2022-08-07T09:01:14.769Z,42.88
2022-08-07T09:03:55.329Z,43.74
2022-08-07T09:06:36.755Z,43.09
2022-08-07T09:09:21.023Z,43.70
2022-08-07T09:12:20.283Z,44.15
2022-08-07T09:15:00.969Z,43.37
2022-08-07T09:18:08.717Z,41.79
2022-08-07T09:20:57.813Z,42.05
2022-08-07T09:24:33.528Z,42.55
2022-08-07T09:26:40.612Z,41.14
2022-08-07T09:30:05.533Z,40.08
2022-08-07T09:32:26.902Z,39.41
2022-08-07T09:36:00.941Z,39.72
2022-08-07T09:38:00.334Z,39.62
2022-08-07T09:40:48.261Z,39.45
2022-08-07T09:43:40.192Z,39.57
2022-08-07T09:47:55.116Z,40.24
2022-08-07T09:50:02.605Z,39.94
2022-08-07T09:52:34.122Z,39.93
2022-08-07T09:55:17.060Z,40.30
2022-08-07T09:58:32.504Z,40.34
2022-08-07T10:01:53.078Z,40.54
2022-08-07T10:04:38.205Z,40.39
2022-08-07T10:07:31.746Z,40.56
2022-08-07T10:10:21.280Z,39.65
2022-08-07T10:13:55.588Z,39.68
2022-08-07T10:16:24.350Z,40.48
2022-08-07T10:19:21.448Z,39.92
2022-08-07T10:22:16.004Z,40.29
2022-08-07T10:24:57.597Z,40.49
2022-08-07T10:27:46.150Z,41.18
2022-08-07T10:30:20.798Z,40.83
2022-08-07T10:34:14.197Z,42.47
2022-08-07T10:36:43.345Z,42.15
2022-08-07T10:39:42.149Z,41.94
2022-08-07T10:42:36.745Z,41.35
2022-08-07T10:45:19.405Z,40.80
2022-08-07T10:48:03.125Z,40.83
2022-08-07T10:50:36.408Z,40.76
2022-08-07T10:53:12.122Z,40.77
2022-08-07T10:55:53.974Z,39.82
2022-08-07T10:58:40.143Z,40.20
2022-08-07T11:01:35.879Z,40.23
2022-08-07T11:04:31.988Z,37.98
2022-08-07T11:07:15.076Z,35.88
2022-08-07T11:10:10.033Z,34.69
2022-08-07T11:12:49.166Z,35.04
2022-08-07T11:15:33.115Z,36.27
2022-08-07T11:18:07.278Z,35.60
2022-08-07T11:20:47.483Z,34.44
2022-08-07T11:23:30.892Z,34.47
2022-08-07T11:26:14.498Z,33.22
2022-08-07T11:28:55.148Z,32.37
2022-08-07T11:31:38.313Z,31.05
2022-08-07T11:34:17.186Z,30.55
2022-08-07T11:36:57.593Z,30.52
2022-08-07T11:40:00.061Z,30.22
2022-08-07T11:42:40.470Z,30.17
2022-08-07T11:45:20.596Z,29.87
2022-08-07T11:48:29.082Z,30.67
2022-08-07T11:51:09.015Z,31.10
2022-08-07T11:54:00.686Z,30.38
2022-08-07T11:56:42.675Z,29.82
2022-08-07T12:00:11.749Z,28.25
2022-08-07T12:02:35.087Z,27.66
2022-08-07T12:05:15.449Z,28.21
2022-08-07T12:08:04.170Z,28.05
2022-08-07T12:10:41.899Z,27.47
2022-08-07T12:13:37.047Z,27.95
2022-08-07T12:16:11.363Z,28.71
2022-08-07T12:18:47.825Z,28.15
2022-08-07T12:21:56.030Z,28.91
2022-08-07T12:24:38.059Z,28.07
2022-08-07T12:27:16.720Z,27.56
2022-08-07T12:29:52.886Z,27.53
2022-08-07T12:32:28.258Z,28.29
2022-08-07T12:34:57.361Z,28.63
2022-08-07T12:37:28.611Z,29.65
2022-08-07T12:40:46.729Z,29.60
2022-08-07T12:43:11.695Z,27.96
2022-08-07T12:46:09.807Z,27.63
2022-08-07T12:48:52.942Z,26.91
2022-08-07T12:51:46.739Z,26.73
2022-08-07T12:54:38.659Z,25.67
2022-08-07T12:57:10.072Z,25.54
2022-08-07T12:59:54.526Z,24.95
2022-08-07T13:02:41.773Z,24.27
2022-08-07T13:06:02.631Z,23.98
2022-08-07T13:08:35.004Z,24.06
2022-08-07T13:11:18.344Z,23.99
2022-08-07T13:13:57.287Z,23.16
2022-08-07T13:16:36.943Z,23.75
2022-08-07T13:19:22.068Z,22.80
2022-08-07T13:22:12.654Z,23.42
2022-08-07T13:25:00.278Z,23.05
2022-08-07T13:28:05.790Z,22.66
2022-08-07T13:30:41.002Z,20.99
2022-08-07T13:34:30.086Z,21.24
2022-08-07T13:36:25.868Z,22.33
2022-08-07T13:39:05.023Z,21.36
2022-08-07T13:41:47.528Z,21.69
2022-08-07T13:44:25.794Z,21.77
2022-08-07T13:46:59.455Z,21.92
2022-08-07T13:50:34.858Z,22.82
2022-08-07T13:52:31.801Z,22.88
2022-08-07T13:55:08.027Z,22.73
2022-08-07T13:57:58.962Z,22.70
2022-08-07T14:00:50.410Z,22.52
2022-08-07T14:03:29.976Z,21.81
2022-08-07T14:06:14.882Z,21.42
2022-08-07T14:08:48.729Z,21.10
2022-08-07T14:11:24.194Z,20.80
2022-08-07T14:13:57.203Z,20.43
2022-08-07T14:16:31.333Z,19.99
2022-08-07T14:19:02.646Z,20.22
2022-08-07T14:22:03.358Z,20.34
2022-08-07T14:24:29.318Z,20.47
2022-08-07T14:28:11.455Z,19.90
2022-08-07T14:30:06.482Z,20.44
2022-08-07T14:32:45.583Z,20.54
2022-08-07T14:35:45.088Z,19.73
2022-08-07T14:38:30.224Z,20.42
2022-08-07T14:41:03.881Z,20.39
2022-08-07T14:46:31.366Z,20.02
2022-08-07T14:49:55.863Z,20.31
2022-08-07T14:52:03.861Z,20.79
2022-08-07T14:54:43.039Z,20.51
2022-08-07T14:57:14.879Z,20.52
2022-08-07T15:00:03.253Z,20.03
2022-08-07T15:02:37.177Z,19.65
2022-08-07T15:05:19.807Z,20.32
2022-08-07T15:07:51.314Z,20.38
2022-08-07T15:10:25.100Z,20.74
2022-08-07T15:12:58.057Z,21.13
2022-08-07T15:15:38.415Z,21.25
2022-08-07T15:18:14.040Z,21.03
2022-08-07T15:21:03.814Z,20.77
2022-08-07T15:25:15.512Z,20.48
2022-08-07T15:26:38.147Z,21.00
2022-08-07T15:34:55.524Z,21.86
2022-08-07T15:37:28.359Z,21.51
2022-08-07T15:39:59.688Z,21.96
2022-08-07T15:42:52.158Z,22.20
2022-08-07T15:45:56.812Z,22.63
2022-08-07T15:48:30.352Z,22.72
2022-08-07T15:51:10.102Z,22.96
2022-08-07T15:53:53.078Z,23.74
2022-08-07T15:56:25.920Z,24.02
2022-08-07T15:58:59.303Z,24.45
2022-08-07T16:01:38.527Z,24.74
2022-08-07T16:04:14.848Z,24.83
2022-08-07T16:06:50.840Z,25.00
2022-08-07T16:09:24.490Z,25.11
2022-08-07T16:12:28.565Z,24.76
2022-08-07T16:15:55.442Z,25.28
2022-08-07T16:18:14.439Z,25.55
2022-08-07T16:22:03.420Z,25.54
2022-08-07T16:24:02.433Z,25.89
2022-08-07T16:26:59.162Z,25.86
2022-08-07T16:30:10.773Z,25.32
2022-08-07T16:32:46.334Z,25.81
2022-08-07T16:35:52.365Z,25.84
2022-08-07T16:38:59.902Z,26.32
2022-08-07T16:41:54.193Z,26.54
2022-08-07T16:45:15.596Z,26.87
2022-08-07T16:48:28.495Z,26.71
2022-08-07T16:51:51.795Z,27.43
2022-08-07T16:54:16.705Z,27.01
2022-08-07T16:56:57.093Z,27.12
2022-08-07T16:59:46.722Z,27.45
2022-08-07T17:02:53.432Z,27.42
2022-08-07T17:06:19.400Z,27.76
2022-08-07T17:09:04.387Z,28.30
2022-08-07T17:12:01.251Z,28.84
2022-08-07T17:14:32.141Z,28.73
2022-08-07T17:17:07.645Z,29.02
2022-08-07T17:20:02.736Z,29.40
2022-08-07T17:22:37.974Z,29.39
2022-08-07T17:25:15.697Z,28.93
2022-08-07T17:27:56.074Z,29.07
2022-08-07T17:30:27.029Z,29.16
2022-08-07T17:34:15.003Z,29.95
2022-08-07T17:36:01.245Z,30.39
2022-08-07T17:38:44.416Z,30.86
2022-08-07T17:42:01.495Z,31.49
2022-08-07T17:44:35.048Z,31.72
2022-08-07T17:47:08.536Z,31.76
2022-08-07T17:49:44.587Z,31.75
2022-08-07T17:52:30.600Z,32.05
2022-08-07T17:55:09.235Z,32.55
2022-08-07T17:57:58.981Z,32.87
2022-08-07T18:00:48.415Z,32.76
2022-08-07T18:03:25.534Z,32.72
2022-08-07T18:06:02.273Z,32.79
2022-08-07T18:08:35.289Z,32.96
2022-08-07T18:11:53.671Z,33.31
2022-08-07T18:14:05.862Z,33.57
2022-08-07T18:16:37.399Z,34.34
2022-08-07T18:21:10.622Z,34.43
2022-08-07T18:22:28.962Z,34.78
2022-08-07T18:25:24.052Z,35.09
2022-08-07T18:28:15.348Z,35.25
2022-08-07T18:31:05.717Z,35.72
2022-08-07T18:33:58.900Z,35.95
2022-08-07T18:36:40.941Z,36.40
2022-08-07T18:40:08.958Z,36.66
2022-08-07T18:42:18.714Z,37.10
2022-08-07T18:45:44.874Z,37.25
2022-08-07T18:48:00.666Z,37.67
2022-08-07T18:50:58.220Z,38.12
2022-08-07T18:53:40.127Z,37.70
2022-08-07T18:56:16.263Z,37.66
2022-08-07T18:59:00.825Z,38.17
2022-08-07T19:02:18.036Z,38.58
2022-08-07T19:04:57.726Z,38.69
2022-08-07T19:07:34.946Z,39.49
2022-08-07T19:10:12.060Z,39.44
2022-08-07T19:12:59.180Z,40.04
2022-08-07T19:16:05.169Z,40.33
2022-08-07T19:18:36.986Z,40.52
2022-08-07T19:21:47.547Z,40.62
2022-08-07T19:24:11.554Z,40.86
2022-08-07T19:28:30.536Z,41.10
2022-08-07T19:31:00.217Z,41.31
2022-08-07T19:32:46.100Z,41.87
2022-08-07T19:35:22.569Z,41.97
2022-08-07T19:37:57.601Z,42.50
2022-08-07T19:40:31.267Z,42.67
2022-08-07T19:43:09.318Z,42.83
2022-08-07T19:46:07.859Z,43.20
2022-08-07T19:48:43.609Z,43.42
2022-08-07T19:51:20.015Z,43.79
2022-08-07T19:54:33.107Z,43.67
2022-08-07T19:58:00.227Z,44.04
2022-08-07T19:59:41.569Z,44.26
2022-08-07T20:02:19.813Z,44.58
2022-08-07T20:04:51.924Z,44.91
2022-08-07T20:07:47.202Z,45.05
2022-08-07T20:10:35.535Z,45.21
2022-08-07T20:13:23.069Z,45.60
2022-08-07T20:15:57.553Z,46.01
2022-08-07T20:18:32.826Z,45.91
2022-08-07T20:21:21.363Z,46.26
2022-08-07T20:23:57.960Z,46.31
2022-08-07T20:26:38.619Z,46.52
2022-08-07T20:29:47.237Z,46.70
2022-08-07T20:32:06.814Z,46.83
2022-08-07T20:34:50.774Z,47.05
2022-08-07T20:37:24.270Z,47.09
2022-08-07T20:40:02.231Z,47.53
2022-08-07T20:42:33.617Z,47.80
2022-08-07T20:45:02.601Z,47.86
2022-08-07T20:47:55.947Z,48.00
2022-08-07T20:50:26.695Z,48.31
2022-08-07T20:52:55.096Z,48.34
2022-08-07T20:55:26.218Z,48.56
2022-08-07T20:58:02.355Z,48.78
2022-08-07T21:00:42.865Z,48.85
2022-08-07T21:03:15.230Z,48.99
2022-08-07T21:05:54.435Z,49.06
2022-08-07T21:08:36.941Z,48.94
2022-08-07T21:11:12.314Z,49.37
2022-08-07T21:14:16.461Z,49.54
2022-08-07T21:16:56.482Z,49.74
2022-08-07T21:19:51.430Z,50.12
2022-08-07T21:22:20.829Z,50.22
2022-08-07T21:25:12.395Z,50.52
2022-08-07T21:28:02.070Z,50.75
2022-08-07T21:30:38.844Z,50.82
2022-08-07T21:33:16.487Z,51.15
2022-08-07T21:36:05.510Z,51.24
2022-08-07T21:38:49.748Z,51.57
2022-08-07T21:41:23.497Z,51.88
2022-08-07T21:44:03.827Z,52.07
2022-08-07T21:46:40.508Z,52.23
2022-08-07T21:49:16.438Z,52.33
2022-08-07T21:51:57.699Z,52.43
2022-08-07T21:54:39.184Z,52.85
2022-08-07T21:57:39.532Z,53.06
2022-08-07T22:00:22.268Z,53.18
2022-08-07T22:03:00.226Z,53.44
2022-08-07T22:05:44.754Z,53.70
2022-08-07T22:08:18.349Z,53.77
2022-08-07T22:10:50.533Z,54.09
2022-08-07T22:13:24.305Z,54.20
2022-08-07T22:16:42.219Z,54.22
2022-08-07T22:19:07.483Z,54.42
2022-08-07T22:22:01.916Z,54.72
2022-08-07T22:24:35.485Z,55.21
2022-08-07T22:27:13.546Z,55.77
2022-08-07T22:29:50.334Z,55.88
2022-08-07T22:32:25.357Z,56.09
2022-08-07T22:34:55.548Z,56.35
2022-08-07T22:38:03.286Z,56.32
2022-08-07T22:40:29.456Z,56.52
2022-08-07T22:43:03.176Z,56.99
2022-08-07T22:46:40.831Z,57.23
2022-08-07T22:49:02.341Z,57.33
2022-08-07T22:51:53.796Z,57.46
2022-08-07T22:54:49.472Z,57.65
2022-08-07T22:57:40.967Z,57.73
2022-08-07T23:00:16.041Z,58.05
2022-08-07T23:02:58.584Z,58.15
2022-08-07T23:06:07.268Z,57.94
2022-08-07T23:10:00.690Z,58.00
2022-08-07T23:12:06.210Z,58.00
2022-08-07T23:14:47.437Z,58.12
2022-08-07T23:17:31.585Z,58.24
2022-08-07T23:20:51.349Z,58.40
2022-08-07T23:24:05.290Z,58.56
2022-08-07T23:26:50.083Z,59.05
2022-08-07T23:30:38.934Z,59.05
2022-08-07T23:34:34.961Z,59.50
2022-08-07T23:36:08.553Z,59.75
2022-08-07T23:38:57.207Z,60.03
2022-08-07T23:42:01.835Z,60.19
2022-08-07T23:44:45.108Z,60.46
2022-08-07T23:47:27.493Z,60.66
2022-08-07T23:50:16.322Z,60.64
2022-08-07T23:53:11.853Z,60.76
2022-08-07T23:55:52.897Z,60.85
2022-08-07T23:58:28.113Z,61.16
